Time;durP1;ratioP1;P1;durP2;ratioP2;P2;SDS_P1;SDS_P2;PMS_P1;PMS_P2;Temp;Humidity;BMP_temperature;BMP_pressure;BME280_temperature;BME280_humidity;BME280_pressure;Samples;Min_cycle;Max_cycle;Signal;HPM_P1;HPM_P2
2024/01/26 00:00:41;;;;;;;;;27.50;23.75;;;;;8.54;56.27;101475.59;146608;590;47012;-70
2024/01/26 00:03:37;;;;;;;;;25.00;24.00;;;;;8.50;56.28;101482.25;146613;595;46010;-71
2024/01/26 00:06:32;;;;;;;;;21.25;18.00;;;;;8.46;54.97;101487.97;146606;622;47030;-68
2024/01/26 00:09:24;;;;;;;;;25.25;21.75;;;;;8.46;54.51;101471.56;146614;614;46021;-69
2024/01/26 00:12:28;;;;;;;;;16.00;14.25;;;;;8.55;53.48;101487.72;146607;609;46035;-69
2024/01/26 00:15:22;;;;;;;;;21.00;19.25;;;;;8.61;52.99;101488.16;146607;609;46020;-70
2024/01/26 00:18:54;;;;;;;;;16.50;15.50;;;;;8.62;52.83;101484.78;146610;577;46012;-69
2024/01/26 00:21:58;;;;;;;;;17.50;17.50;;;;;8.72;52.69;101486.31;146612;569;46020;-69
2024/01/26 00:25:16;;;;;;;;;26.00;21.75;;;;;8.77;52.83;101501.37;146609;636;46016;-70
2024/01/26 00:28:14;;;;;;;;;23.25;21.50;;;;;8.81;52.79;101505.06;146607;566;48020;-70
2024/01/26 00:31:17;;;;;;;;;25.50;22.25;;;;;8.82;52.62;101496.56;146610;572;46033;-69
2024/01/26 00:34:12;;;;;;;;;23.25;19.50;;;;;8.83;52.53;101500.03;146611;595;46021;-69
2024/01/26 00:37:10;;;;;;;;;19.50;16.00;;;;;8.83;52.51;101492.28;146610;602;47016;-69
2024/01/26 00:40:19;;;;;;;;;24.25;22.25;;;;;8.81;52.39;101486.09;146610;613;46011;-69
2024/01/26 00:43:12;;;;;;;;;21.00;18.25;;;;;8.82;52.68;101491.37;146605;573;47012;-69
2024/01/26 00:46:13;;;;;;;;;22.75;19.25;;;;;8.82;52.73;101493.06;146610;573;46010;-69
2024/01/26 00:49:34;;;;;;;;;24.75;19.75;;;;;8.82;52.68;101503.41;146611;588;46016;-69
2024/01/26 00:52:34;;;;;;;;;17.25;15.50;;;;;8.84;52.57;101517.34;146611;639;46020;-71
2024/01/26 00:55:48;;;;;;;;;19.75;17.25;;;;;8.87;52.59;101517.56;146611;564;46016;-71
2024/01/26 00:58:40;;;;;;;;;19.25;16.50;;;;;8.90;52.65;101515.19;146610;587;46020;-69
2024/01/26 01:01:38;;;;;;;;;15.75;14.75;;;;;8.91;52.62;101520.47;146607;675;46029;-69
2024/01/26 01:04:34;;;;;;;;;16.00;15.50;;;;;8.90;52.41;101507.41;146612;566;46037;-73
2024/01/26 01:07:30;;;;;;;;;14.25;13.25;;;;;8.91;51.99;101509.22;146606;578;47016;-70
2024/01/26 01:10:34;;;;;;;;;15.00;13.50;;;;;8.93;52.16;101507.63;146615;569;46020;-72
2024/01/26 01:13:34;;;;;;;;;13.00;12.00;;;;;8.96;52.12;101515.63;146609;752;47016;-72
2024/01/26 01:16:39;;;;;;;;;12.50;11.50;;;;;8.83;51.67;101498.34;146614;572;46030;-71
2024/01/26 01:19:38;;;;;;;;;16.75;10.75;;;;;9.00;51.89;101534.06;146611;577;46012;-72
2024/01/26 01:22:39;;;;;;;;;16.75;12.00;;;;;9.05;51.85;101543.81;146612;587;46020;-72
2024/01/26 01:25:42;;;;;;;;;13.25;12.00;;;;;9.07;51.83;101539.66;146607;639;46016;-72
2024/01/26 01:28:41;;;;;;;;;17.50;12.50;;;;;9.08;51.98;101547.53;146614;574;46020;-74
2024/01/26 01:31:35;;;;;;;;;15.00;12.00;;;;;9.10;52.15;101563.16;146612;638;46012;-69
2024/01/26 01:34:33;;;;;;;;;9.00;9.00;;;;;9.09;52.34;101556.16;146616;592;46020;-72
2024/01/26 01:37:47;;;;;;;;;;;;;;;;;;;;;
2024/01/26 01:40:44;;;;;;;;;13.00;11.25;;;;;8.99;52.62;101533.94;146613;600;46023;-73
2024/01/26 01:43:57;;;;;;;;;15.00;13.25;;;;;8.94;52.94;101532.69;146608;604;46016;-77
2024/01/26 01:47:00;;;;;;;;;13.00;13.00;;;;;8.88;52.84;101529.69;146614;590;46011;-76
2024/01/26 01:50:18;;;;;;;;;13.00;10.25;;;;;8.89;52.56;101536.66;146606;590;47012;-79
2024/01/26 01:53:15;;;;;;;;;16.00;13.75;;;;;8.88;52.88;101527.09;146613;570;47010;-75
2024/01/26 01:56:33;;;;;;;;;16.50;14.75;;;;;8.72;53.14;101501.84;146632;563;46012;-69
2024/01/26 01:59:30;;;;;;;;;17.50;16.00;;;;;8.84;53.21;101518.22;146635;711;45020;-71
2024/01/26 02:02:34;;;;;;;;;;;;;;;;;;;;;
2024/01/26 02:05:31;;;;;;;;;18.00;17.00;;;;;8.80;52.98;101526.56;146636;569;45010;-71
2024/01/26 02:08:47;;;;;;;;;18.00;14.00;;;;;8.70;52.96;101503.44;146634;626;45017;-70
2024/01/26 02:11:48;;;;;;;;;19.25;16.00;;;;;8.72;52.53;101517.34;146636;591;45020;-71
2024/01/26 02:14:48;;;;;;;;;13.50;13.50;;;;;8.70;53.01;101529.28;146631;565;45014;-73
2024/01/26 02:17:53;;;;;;;;;14.25;11.50;;;;;8.69;52.85;101536.16;146633;629;47014;-72
2024/01/26 02:21:05;;;;;;;;;12.75;11.75;;;;;8.67;53.16;101529.06;146634;742;45012;-68
2024/01/26 02:24:14;;;;;;;;;;;;;;;;;;;;;
2024/01/26 02:27:10;;;;;;;;;18.00;14.00;;;;;8.64;52.99;101521.09;146633;563;45912;-70
2024/01/26 02:30:11;;;;;;;;;17.25;17.00;;;;;8.63;53.04;101520.22;146638;572;46025;-70
2024/01/26 02:33:27;;;;;;;;;14.00;11.00;;;;;8.63;53.04;101533.12;146633;602;46012;-71
2024/01/26 02:36:34;;;;;;;;;18.25;14.00;;;;;8.65;53.23;101528.94;146634;572;45020;-70
2024/01/26 02:39:57;;;;;;;;;18.25;13.50;;;;;8.64;53.13;101518.50;146634;728;45014;-70
2024/01/26 02:42:54;;;;;;;;;12.00;12.00;;;;;8.65;53.37;101522.88;146634;674;45020;-70
2024/01/26 02:46:06;;;;;;;;;;;;;;;;;;;;;
2024/01/26 02:49:05;;;;;;;;;18.00;16.25;;;;;8.59;53.58;101541.44;146631;624;47020;-68
2024/01/26 02:52:10;;;;;;;;;17.00;12.00;;;;;8.55;53.22;101542.91;146634;613;45016;-69
2024/01/26 02:55:05;;;;;;;;;13.75;13.00;;;;;8.59;53.48;101556.06;146618;569;46010;-69
2024/01/26 02:57:59;;;;;;;;;18.25;14.25;;;;;8.51;54.21;101553.81;146611;652;46016;-69
2024/01/26 03:01:00;;;;;;;;;13.25;13.00;;;;;8.44;54.14;101551.59;146612;598;47010;-69
2024/01/26 03:04:02;;;;;;;;;15.00;12.50;;;;;8.38;54.48;101552.75;146608;609;46012;-73
2024/01/26 03:06:58;;;;;;;;;14.25;12.00;;;;;8.30;54.60;101557.38;146612;586;47020;-71
2024/01/26 03:09:53;;;;;;;;;12.25;12.00;;;;;8.19;55.18;101546.25;146605;583;46916;-72
2024/01/26 03:13:09;;;;;;;;;13.75;12.00;;;;;8.16;55.20;101542.53;146611;582;47020;-72
2024/01/26 03:16:15;;;;;;;;;13.00;12.75;;;;;8.10;55.18;101536.16;146611;611;46016;-73
2024/01/26 03:19:13;;;;;;;;;16.25;12.25;;;;;8.06;54.38;101534.09;146616;585;46010;-73
2024/01/26 03:22:19;;;;;;;;;15.00;13.25;;;;;7.99;54.27;101518.06;146607;575;47013;-72
2024/01/26 03:25:27;;;;;;;;;17.25;14.75;;;;;7.50;53.77;101413.72;146613;613;46010;-74
2024/01/26 03:28:33;;;;;;;;;11.25;10.50;;;;;8.24;53.73;101531.09;146611;564;46014;-75
2024/01/26 03:31:34;;;;;;;;;12.50;11.75;;;;;8.28;53.60;101522.78;146613;597;46010;-72
2024/01/26 03:34:31;;;;;;;;;13.50;11.00;;;;;8.28;53.33;101526.25;146610;600;47012;-73
2024/01/26 03:37:41;;;;;;;;;12.25;11.50;;;;;8.31;53.20;101525.56;146614;620;46029;-70
2024/01/26 03:40:52;;;;;;;;;10.75;9.75;;;;;8.33;53.52;101524.91;146609;656;46012;-70
2024/01/26 03:43:51;;;;;;;;;13.50;13.25;;;;;8.34;53.19;101534.44;146620;584;47010;-68
2024/01/26 03:46:56;;;;;;;;;20.00;20.00;;;;;8.35;53.44;101530.22;146607;621;46918;-67
2024/01/26 03:50:04;;;;;;;;;14.25;10.00;;;;;8.34;53.53;101534.44;146615;564;46020;-69
2024/01/26 03:52:59;;;;;;;;;11.00;10.00;;;;;8.34;53.31;101534.44;146609;599;46016;-69
2024/01/26 03:55:54;;;;;;;;;9.00;9.00;;;;;8.37;53.20;101541.53;146636;564;45020;-70
2024/01/26 03:59:01;;;;;;;;;11.75;11.75;;;;;8.39;53.13;101545.19;146637;590;46012;-71
2024/01/26 04:02:08;;;;;;;;;14.00;12.75;;;;;8.38;53.23;101547.59;146637;598;45020;-69
2024/01/26 04:05:04;;;;;;;;;13.25;12.00;;;;;8.40;53.31;101562.47;146634;587;45014;-71
2024/01/26 04:08:02;;;;;;;;;15.25;11.75;;;;;8.36;53.56;101559.53;146637;612;45020;-69
2024/01/26 04:11:02;;;;;;;;;15.25;11.00;;;;;8.32;53.57;101561.88;146635;615;45012;-70
2024/01/26 04:14:08;;;;;;;;;12.50;11.50;;;;;8.29;53.57;101558.19;146630;612;45011;-69
2024/01/26 04:17:00;;;;;;;;;10.25;10.00;;;;;8.27;53.55;101555.47;146627;608;45916;-70
2024/01/26 04:19:58;;;;;;;;;15.00;15.00;;;;;8.21;53.76;101543.78;146635;656;46010;-70
2024/01/26 04:22:56;;;;;;;;;12.50;11.50;;;;;8.17;53.89;101550.41;146634;579;45014;-70
2024/01/26 04:25:57;;;;;;;;;14.25;12.75;;;;;8.16;53.96;101560.62;146637;600;45020;-70
2024/01/26 04:28:55;;;;;;;;;14.75;13.00;;;;;8.12;54.10;101567.25;146635;650;45012;-70
2024/01/26 04:31:48;;;;;;;;;12.50;11.00;;;;;8.08;54.26;101572.97;146636;662;45021;-69
2024/01/26 04:34:45;;;;;;;;;12.25;10.75;;;;;8.08;53.74;101578.16;146635;566;46012;-70
2024/01/26 04:37:53;;;;;;;;;16.25;12.25;;;;;8.10;53.59;101574.91;146636;615;45020;-68
2024/01/26 04:40:51;;;;;;;;;16.50;13.00;;;;;8.13;53.97;101576.81;146631;569;45016;-69
2024/01/26 04:43:53;;;;;;;;;14.25;11.75;;;;;8.14;53.58;101578.59;146628;565;45020;-69
2024/01/26 04:46:55;;;;;;;;;13.00;10.75;;;;;8.20;53.49;101588.50;146633;646;46010;-69
2024/01/26 04:49:52;;;;;;;;;13.50;11.50;;;;;8.22;53.45;101589.50;146632;598;46020;-68
2024/01/26 04:52:49;;;;;;;;;14.00;12.00;;;;;8.23;53.27;101594.78;146633;604;45017;-67
2024/01/26 04:55:41;;;;;;;;;10.25;8.75;;;;;8.24;53.50;101603.44;146609;574;47010;-68
2024/01/26 04:58:35;;;;;;;;;13.25;11.25;;;;;8.19;53.92;101600.50;146611;593;47016;-67
2024/01/26 05:01:35;;;;;;;;;13.25;11.50;;;;;8.17;53.67;101612.41;146613;569;46014;-67
2024/01/26 05:04:35;;;;;;;;;13.00;13.00;;;;;8.13;53.87;101623.31;146609;606;47016;-70
2024/01/26 05:07:31;;;;;;;;;14.00;13.00;;;;;8.12;53.78;101628.34;146609;577;47011;-69
2024/01/26 05:10:30;;;;;;;;;9.75;9.75;;;;;8.09;54.04;101634.19;146610;650;46916;-67
2024/01/26 05:13:31;;;;;;;;;16.75;14.25;;;;;8.06;53.65;101639.12;146605;577;46020;-70
2024/01/26 05:16:39;;;;;;;;;17.75;16.75;;;;;8.02;54.30;101648.31;146608;577;46016;-68
2024/01/26 05:19:37;;;;;;;;;22.75;19.00;;;;;7.96;54.52;101650.44;146612;577;46020;-69
2024/01/26 05:22:40;;;;;;;;;21.25;17.75;;;;;7.89;55.07;101655.91;146607;591;46915;-73
2024/01/26 05:25:47;;;;;;;;;17.75;16.25;;;;;7.86;54.89;101661.75;146611;601;46010;-71
2024/01/26 05:28:52;;;;;;;;;17.25;17.25;;;;;7.86;55.25;101655.69;146607;625;46017;-72
2024/01/26 05:32:08;;;;;;;;;21.50;20.00;;;;;7.85;55.35;101670.28;146609;573;47020;-71
2024/01/26 05:35:06;;;;;;;;;21.25;18.00;;;;;7.81;55.21;101675.97;146607;570;46017;-71
2024/01/26 05:38:15;;;;;;;;;22.00;17.50;;;;;7.73;55.44;101669.34;146612;601;46010;-70
2024/01/26 05:41:13;;;;;;;;;22.25;19.00;;;;;7.65;55.64;101675.56;146609;631;46016;-73
2024/01/26 05:44:19;;;;;;;;;23.00;20.25;;;;;7.57;55.72;101674.97;146606;616;46020;-72
2024/01/26 05:47:18;;;;;;;;;25.50;23.00;;;;;7.53;56.15;101684.94;146609;599;46016;-70
2024/01/26 05:50:16;;;;;;;;;24.75;23.00;;;;;7.41;56.73;101690.03;146609;604;47010;-71
2024/01/26 05:53:10;;;;;;;;;26.50;23.00;;;;;7.28;56.72;101690.72;146611;640;46016;-73
2024/01/26 05:56:05;;;;;;;;;31.00;26.00;;;;;7.25;57.50;101692.16;146634;609;45020;-73
2024/01/26 05:58:56;;;;;;;;;23.50;20.25;;;;;7.27;56.98;101700.94;146631;586;46016;-74
2024/01/26 06:02:20;;;;;;;;;25.00;24.50;;;;;6.45;56.63;101562.03;146634;623;45020;-74
2024/01/26 06:05:22;;;;;;;;;33.00;28.00;;;;;7.16;57.63;101706.16;146632;629;46017;-74
2024/01/26 06:08:17;;;;;;;;;25.50;22.75;;;;;7.16;57.49;101723.28;146633;580;46010;-73
2024/01/26 06:11:40;;;;;;;;;31.00;25.50;;;;;7.15;57.69;101730.12;146633;604;45860;-69
2024/01/26 06:14:45;;;;;;;;;34.00;28.25;;;;;7.16;57.76;101731.94;146626;601;45021;-69
2024/01/26 06:17:41;;;;;;;;;21.50;20.25;;;;;7.21;59.86;101737.47;146632;579;45914;-69
2024/01/26 06:20:39;;;;;;;;;45.50;33.50;;;;;7.97;60.01;101726.22;146629;594;45018;-70
2024/01/26 06:23:37;;;;;;;;;181.00;141.50;;;;;9.17;57.75;101725.81;146635;597;46012;-70
2024/01/26 06:26:42;;;;;;;;;;;;;;;;;;;;;
2024/01/26 06:29:43;;;;;;;;;78.00;59.50;;;;;11.49;51.91;101733.03;146630;604;46010;-70
2024/01/26 06:32:49;;;;;;;;;135.33;112.33;;;;;12.43;47.84;101715.44;146636;571;45020;-70
2024/01/26 06:35:45;;;;;;;;;139.00;113.50;;;;;13.20;45.96;101717.25;146636;589;46017;-70
2024/01/26 06:38:56;;;;;;;;;170.50;147.50;;;;;13.92;46.95;101716.91;146641;703;46014;-72
2024/01/26 06:42:04;;;;;;;;;41.25;34.00;;;;;14.59;43.88;101716.09;146637;595;45016;-73
2024/01/26 06:45:11;;;;;;;;;31.75;27.25;;;;;15.12;43.19;101712.63;146628;565;45020;-73
2024/01/26 06:48:20;;;;;;;;;25.75;25.00;;;;;15.02;44.49;101598.97;146632;618;45016;-72
2024/01/26 06:51:19;;;;;;;;;29.00;25.00;;;;;16.35;42.86;101712.25;146634;587;45011;-72
2024/01/26 06:54:37;;;;;;;;;27.00;27.00;;;;;17.16;40.68;101709.50;146619;601;46016;-73
2024/01/26 06:57:42;;;;;;;;;35.25;29.00;;;;;17.81;39.75;101710.31;146611;570;47014;-70
2024/01/26 07:01:00;;;;;;;;;78.25;66.00;;;;;17.14;41.39;101519.88;146607;624;46031;-71
2024/01/26 07:03:54;;;;;;;;;55.25;41.25;;;;;18.53;37.46;101709.38;146609;624;47010;-71
2024/01/26 07:07:05;;;;;;;;;34.00;28.75;;;;;17.66;39.20;101557.56;146609;622;47017;-73
2024/01/26 07:10:00;;;;;;;;;30.25;28.75;;;;;18.39;36.59;101707.19;146612;586;48010;-70
2024/01/26 07:13:33;;;;;;;;;30.25;26.25;;;;;17.38;38.88;101580.16;146606;615;46038;-72
2024/01/26 07:16:48;;;;;;;;;37.25;30.75;;;;;17.60;37.62;101696.34;146606;571;47010;-68
2024/01/26 07:19:52;;;;;;;;;;;;;;;;;;;;;
2024/01/26 07:23:01;;;;;;;;;33.50;30.75;;;;;16.83;39.53;101698.56;146607;563;47010;-69
2024/01/26 07:26:07;;;;;;;;;30.00;28.25;;;;;16.55;40.81;101697.38;146607;570;47014;-71
2024/01/26 07:29:11;;;;;;;;;24.50;23.00;;;;;16.38;40.57;101700.97;146612;599;46010;-72
2024/01/26 07:32:15;;;;;;;;;32.75;27.75;;;;;16.14;40.19;101704.34;146608;619;47014;-70
2024/01/26 07:35:23;;;;;;;;;16.75;16.75;;;;;15.92;41.13;101710.34;146613;569;46010;-70
2024/01/26 07:38:35;;;;;;;;;26.75;23.75;;;;;15.75;42.41;101707.78;146608;655;46016;-71
2024/01/26 07:41:38;;;;;;;;;36.25;29.00;;;;;15.53;40.06;101706.75;146611;652;46020;-69
2024/01/26 07:44:35;;;;;;;;;26.25;21.75;;;;;15.11;40.55;101709.13;146602;584;46016;-69
2024/01/26 07:47:36;;;;;;;;;25.50;24.25;;;;;14.73;41.66;101713.31;146606;586;46020;-69
2024/01/26 07:50:52;;;;;;;;;21.50;18.25;;;;;14.29;41.86;101716.25;146608;612;46017;-72
2024/01/26 07:54:14;;;;;;;;;21.00;15.00;;;;;13.71;42.37;101719.28;146611;585;47010;-71
2024/01/26 07:57:25;;;;;;;;;21.00;17.00;;;;;13.29;43.62;101715.19;146602;585;47021;-74
2024/01/26 08:00:46;;;;;;;;;21.25;17.00;;;;;12.78;45.49;101672.38;146613;637;46020;-74
2024/01/26 08:03:45;;;;;;;;;20.00;15.25;;;;;13.02;43.72;101730.12;146608;583;46912;-74
2024/01/26 08:06:44;;;;;;;;;16.50;15.25;;;;;12.95;44.86;101737.56;146611;598;46021;-76
2024/01/26 08:09:42;;;;;;;;;17.50;15.75;;;;;12.98;44.83;101738.56;146610;632;46016;-76
2024/01/26 08:12:45;;;;;;;;;19.50;17.75;;;;;13.03;45.36;101731.94;146611;566;46010;-68
2024/01/26 08:16:01;;;;;;;;;21.00;21.00;;;;;13.17;45.95;101733.59;146603;638;47916;-73
2024/01/26 08:19:05;;;;;;;;;;;;;;;;;;;;;
2024/01/26 08:22:12;;;;;;;;;22.00;19.00;;;;;13.32;44.45;101731.00;146602;572;47914;-73
2024/01/26 08:25:15;;;;;;;;;18.75;18.25;;;;;13.37;44.44;101738.28;146605;609;47010;-72
2024/01/26 08:28:46;;;;;;;;;14.25;8.25;;;;;12.44;44.28;101549.03;146609;571;47013;-73
2024/01/26 08:31:44;;;;;;;;;11.00;9.25;;;;;13.58;44.84;101738.56;146616;579;47014;-72
2024/01/26 08:34:40;;;;;;;;;10.25;9.25;;;;;13.82;43.66;101748.53;146609;564;47013;-73
2024/01/26 08:37:36;;;;;;;;;10.50;10.50;;;;;14.08;44.39;101752.53;146621;617;47010;-75
2024/01/26 08:40:42;;;;;;;;;7.00;6.00;;;;;14.32;43.31;101747.72;146609;625;47916;-73
2024/01/26 08:43:40;;;;;;;;;12.75;10.75;;;;;14.50;42.71;101743.47;146619;590;46020;-73
2024/01/26 08:46:49;;;;;;;;;9.75;8.25;;;;;14.59;42.59;101750.91;146603;575;47916;-73
2024/01/26 08:50:00;;;;;;;;;10.75;9.25;;;;;14.57;42.27;101738.59;146603;596;47021;-73
2024/01/26 08:53:14;;;;;;;;;12.00;9.25;;;;;14.52;41.04;101741.87;146612;669;46016;-72
2024/01/26 08:56:17;;;;;;;;;10.75;8.25;;;;;14.47;42.21;101743.31;146637;625;45021;-75
2024/01/26 08:59:14;;;;;;;;;11.75;10.25;;;;;14.50;40.93;101734.75;146629;640;46012;-74
2024/01/26 09:02:12;;;;;;;;;11.00;9.50;;;;;14.53;41.26;101727.09;146634;624;46010;-72
2024/01/26 09:05:15;;;;;;;;;11.00;8.75;;;;;14.59;41.07;101727.41;146631;636;46016;-72
2024/01/26 09:08:14;;;;;;;;;8.00;6.50;;;;;14.64;38.96;101725.94;146635;647;45020;-73
2024/01/26 09:11:18;;;;;;;;;10.25;9.00;;;;;14.73;42.20;101730.72;146633;597;45918;-72
2024/01/26 09:14:25;;;;;;;;;9.00;8.75;;;;;14.88;39.54;101728.87;146635;585;45014;-72
2024/01/26 09:17:33;;;;;;;;;10.00;9.00;;;;;14.96;38.72;101734.50;146631;599;46010;-72
2024/01/26 09:20:26;;;;;;;;;8.25;8.25;;;;;15.04;38.97;101734.84;146622;610;48010;-72
2024/01/26 09:23:47;;;;;;;;;8.75;8.00;;;;;15.14;39.23;101730.16;146635;581;45016;-72
2024/01/26 09:27:10;;;;;;;;;10.75;7.50;;;;;15.22;38.68;101731.41;146636;610;45021;-73
2024/01/26 09:30:12;;;;;;;;;12.50;11.50;;;;;15.31;36.58;101730.09;146632;580;45033;-73
2024/01/26 09:33:07;;;;;;;;;10.75;9.00;;;;;15.37;38.08;101733.88;146635;695;45020;-73
2024/01/26 09:36:07;;;;;;;;;12.25;9.50;;;;;15.51;38.45;101720.56;146632;566;45916;-72
2024/01/26 09:39:12;;;;;;;;;;;;;;;;;;;;;
2024/01/26 09:42:11;;;;;;;;;12.00;9.75;;;;;15.72;36.72;101711.13;146628;587;47010;-72
2024/01/26 09:45:23;;;;;;;;;15.50;10.25;;;;;14.92;37.26;101561.09;146634;573;46010;-72
2024/01/26 09:48:24;;;;;;;;;6.75;6.75;;;;;15.72;38.33;101705.00;146632;582;46916;-72
2024/01/26 09:51:23;;;;;;;;;7.00;6.00;;;;;15.69;35.24;101693.59;146628;569;45020;-72
2024/01/26 09:54:32;;;;;;;;;;;;;;;;;;;;;
2024/01/26 09:57:29;;;;;;;;;7.25;5.50;;;;;15.68;36.21;101673.50;146614;647;47010;-72
2024/01/26 10:00:34;;;;;;;;;4.50;4.25;;;;;15.62;36.33;101672.28;146609;620;46016;-74
2024/01/26 10:03:39;;;;;;;;;5.00;4.00;;;;;15.58;35.56;101679.09;146616;649;46021;-72
2024/01/26 10:06:58;;;;;;;;;8.25;6.25;;;;;15.62;37.71;101673.19;146610;611;47012;-72
2024/01/26 10:10:03;;;;;;;;;8.75;6.50;;;;;15.68;36.25;101662.16;146615;678;47010;-72
2024/01/26 10:13:16;;;;;;;;;;;;;;;;;;;;;
2024/01/26 10:16:20;;;;;;;;;6.75;5.75;;;;;15.81;35.60;101660.97;146614;592;46020;-72
2024/01/26 10:19:49;;;;;;;;;7.00;6.50;;;;;15.84;36.38;101663.72;146608;670;47012;-72
2024/01/26 10:22:41;;;;;;;;;8.50;8.25;;;;;15.92;37.50;101668.50;146602;615;46020;-73
2024/01/26 10:26:04;;;;;;;;;;;;;;;;;;;;;
2024/01/26 10:29:15;;;;;;;;;10.25;8.00;;;;;15.55;39.80;101532.59;146615;626;47020;-74
2024/01/26 10:32:28;;;;;;;;;;;;;;;;;;;;;
2024/01/26 10:35:46;;;;;;;;;12.25;8.00;;;;;16.69;38.84;101666.53;146614;572;46021;-73
2024/01/26 10:39:05;;;;;;;;;;;;;;;;;;;;;
2024/01/26 10:42:05;;;;;;;;;15.50;13.00;;;;;17.02;36.04;101651.31;146615;638;46011;-74
2024/01/26 10:45:18;;;;;;;;;8.75;7.75;;;;;17.12;36.39;101651.69;146603;579;48016;-74
2024/01/26 10:48:22;;;;;;;;;23.75;21.25;;;;;17.14;36.75;101634.31;146612;573;47021;-73
2024/01/26 10:51:37;;;;;;;;;12.50;11.00;;;;;17.22;38.26;101632.84;146599;629;47012;-74
2024/01/26 10:54:31;;;;;;;;;7.25;6.00;;;;;17.32;36.32;101619.28;146599;659;47010;-74
2024/01/26 10:57:27;;;;;;;;;9.25;8.75;;;;;17.49;36.24;101618.19;146611;593;46917;-73
2024/01/26 11:00:40;;;;;;;;;9.50;7.25;;;;;17.67;38.42;101617.09;146616;593;46037;-74
2024/01/26 11:03:42;;;;;;;;;8.00;7.50;;;;;17.75;35.85;101620.84;146610;682;47016;-74
2024/01/26 11:06:43;;;;;;;;;8.00;7.00;;;;;17.81;35.76;101613.25;146614;654;47020;-74
2024/01/26 11:09:42;;;;;;;;;8.50;7.25;;;;;17.87;32.90;101615.19;146609;624;46016;-73
2024/01/26 11:12:42;;;;;;;;;11.75;9.75;;;;;17.81;34.88;101605.38;146616;569;46021;-73
2024/01/26 11:15:47;;;;;;;;;10.00;8.75;;;;;17.69;35.58;101602.28;146611;579;46914;-73
2024/01/26 11:18:48;;;;;;;;;7.75;7.75;;;;;17.69;34.17;101600.53;146614;564;47021;-74
2024/01/26 11:21:53;;;;;;;;;7.50;7.00;;;;;17.72;34.06;101586.66;146610;575;46016;-75
2024/01/26 11:24:50;;;;;;;;;5.00;5.00;;;;;17.82;36.25;101588.81;146600;565;47015;-75
2024/01/26 11:27:55;;;;;;;;;9.25;9.00;;;;;17.93;34.32;101590.06;146610;639;46017;-75
2024/01/26 11:31:02;;;;;;;;;7.25;6.75;;;;;17.95;35.14;101579.63;146612;628;47020;-75
2024/01/26 11:34:46;;;;;;;;;13.25;12.00;;;;;16.78;38.33;101377.94;146606;598;47013;-75
2024/01/26 11:38:01;;;;;;;;;7.25;6.00;;;;;18.06;35.31;101582.63;146608;721;46020;-76
2024/01/26 11:41:08;;;;;;;;;11.25;9.00;;;;;18.11;34.13;101566.19;146607;656;47014;-75
2024/01/26 11:44:33;;;;;;;;;21.75;17.25;;;;;18.21;36.38;101564.78;146614;763;47010;-76
2024/01/26 11:47:33;;;;;;;;;5.25;5.25;;;;;18.32;34.19;101552.91;146604;565;47012;-75
2024/01/26 11:50:34;;;;;;;;;17.00;15.00;;;;;17.91;36.35;101471.06;146611;575;46020;-76
2024/01/26 11:53:38;;;;;;;;;9.25;8.25;;;;;18.46;33.66;101548.09;146601;677;46012;-75
2024/01/26 11:56:47;;;;;;;;;5.50;5.00;;;;;18.50;33.20;101543.81;146602;665;46028;-75
2024/01/26 12:00:10;;;;;;;;;7.00;7.00;;;;;18.61;34.58;101545.06;146605;653;48012;-75
2024/01/26 12:03:20;;;;;;;;;6.00;5.75;;;;;18.73;34.94;101534.97;146615;606;47010;-75
2024/01/26 12:06:28;;;;;;;;;32.00;25.25;;;;;18.73;32.64;101534.09;146608;570;47012;-74
2024/01/26 12:09:28;;;;;;;;;10.00;9.00;;;;;18.62;32.86;101537.22;146609;633;46020;-75
2024/01/26 12:12:32;;;;;;;;;11.25;10.00;;;;;18.57;34.41;101524.81;146606;632;47012;-75
2024/01/26 12:15:39;;;;;;;;;8.00;7.25;;;;;18.60;36.45;101522.28;146607;622;47010;-75
2024/01/26 12:18:47;;;;;;;;;10.25;9.00;;;;;18.65;33.87;101524.19;146608;608;46014;-75
2024/01/26 12:22:02;;;;;;;;;7.75;7.75;;;;;18.76;36.51;101515.78;146612;618;47010;-76
2024/01/26 12:25:11;;;;;;;;;8.50;7.50;;;;;18.88;33.94;101506.53;146611;571;46013;-76
2024/01/26 12:28:19;;;;;;;;;9.75;8.00;;;;;18.92;34.72;101521.53;146604;615;46010;-75
2024/01/26 12:31:23;;;;;;;;;8.25;7.25;;;;;18.99;33.57;101511.22;146610;689;46017;-76
2024/01/26 12:34:25;;;;;;;;;9.75;9.75;;;;;19.08;33.48;101501.84;146617;662;46020;-75
2024/01/26 12:37:39;;;;;;;;;9.75;7.25;;;;;17.93;35.63;101285.72;146610;699;47012;-75
2024/01/26 12:40:34;;;;;;;;;10.50;8.75;;;;;19.12;31.90;101501.09;146612;633;48012;-74
2024/01/26 12:43:28;;;;;;;;;7.50;5.25;;;;;19.03;32.19;101502.56;146606;569;47914;-76
2024/01/26 12:46:44;;;;;;;;;9.00;7.75;;;;;18.95;30.69;101499.72;146615;566;46022;-75
2024/01/26 12:49:49;;;;;;;;;8.75;7.00;;;;;17.64;35.50;101276.91;146610;573;46016;-75
2024/01/26 12:52:46;;;;;;;;;9.00;7.50;;;;;19.00;33.03;101502.47;146611;570;46020;-76
2024/01/26 12:55:44;;;;;;;;;11.50;10.75;;;;;19.06;32.09;101503.53;146608;615;47012;-75
2024/01/26 12:58:50;;;;;;;;;8.75;7.75;;;;;19.00;33.79;101508.63;146601;704;47010;-75
2024/01/26 13:02:21;;;;;;;;;8.00;7.00;;;;;18.24;35.34;101374.12;146608;574;46030;-75
2024/01/26 13:05:18;;;;;;;;;12.00;8.25;;;;;19.13;33.22;101510.78;146614;615;47008;-74
2024/01/26 13:08:33;;;;;;;;;22.00;20.00;;;;;19.29;34.50;101514.72;146609;702;46016;-76
2024/01/26 13:11:35;;;;;;;;;10.00;9.50;;;;;19.38;30.57;101503.59;146601;657;48049;-76
2024/01/26 13:14:33;;;;;;;;;10.25;9.75;;;;;19.45;32.47;101505.53;146610;661;46016;-76
2024/01/26 13:17:33;;;;;;;;;14.00;11.00;;;;;19.56;31.34;101508.44;146614;658;46020;-77
2024/01/26 13:20:34;;;;;;;;;6.25;6.00;;;;;19.54;29.75;101502.25;146600;565;48012;-76
2024/01/26 13:23:50;;;;;;;;;14.00;11.75;;;;;18.28;31.94;101303.34;146616;603;47021;-76
2024/01/26 13:26:58;;;;;;;;;9.75;8.00;;;;;19.29;30.50;101508.59;146605;662;46016;-76
2024/01/26 13:30:06;;;;;;;;;10.25;9.25;;;;;18.03;32.35;101309.59;146596;654;47023;-77
2024/01/26 13:33:28;;;;;;;;;12.75;11.50;;;;;19.24;32.89;101520.69;146610;591;46012;-76
2024/01/26 13:36:36;;;;;;;;;19.00;18.00;;;;;19.46;32.58;101509.03;146603;708;47012;-77
2024/01/26 13:39:29;;;;;;;;;12.75;11.75;;;;;19.72;32.31;101505.41;146601;569;47012;-76
2024/01/26 13:42:25;;;;;;;;;13.00;12.00;;;;;19.92;31.77;101499.78;146605;600;46020;-76
2024/01/26 13:45:30;;;;;;;;;16.00;14.00;;;;;19.98;30.87;101492.03;146603;648;46013;-75
2024/01/26 13:48:25;;;;;;;;;16.25;15.00;;;;;19.79;30.36;101488.94;146605;629;46020;-76
2024/01/26 13:51:31;;;;;;;;;12.75;11.25;;;;;19.66;30.81;101496.44;146602;622;46016;-76
2024/01/26 13:54:31;;;;;;;;;18.75;15.25;;;;;19.54;31.86;101499.62;146604;613;47010;-75
2024/01/26 13:57:30;;;;;;;;;14.75;13.50;;;;;19.45;31.54;101497.63;146602;654;47012;-75
2024/01/26 14:00:33;;;;;;;;;13.00;12.00;;;;;19.32;31.96;101491.16;146597;570;47020;-74
2024/01/26 14:03:28;;;;;;;;;16.75;15.00;;;;;19.28;32.09;101494.56;146602;602;46016;-77
2024/01/26 14:06:20;;;;;;;;;32.00;29.25;;;;;19.36;32.16;101497.38;146605;656;47010;-75
2024/01/26 14:09:17;;;;;;;;;35.50;29.75;;;;;19.38;32.63;101488.69;146601;566;48014;-76
2024/01/26 14:12:20;;;;;;;;;18.00;15.50;;;;;19.43;35.27;101493.16;146602;645;49010;-75
2024/01/26 14:15:19;;;;;;;;;14.00;11.25;;;;;19.41;32.13;101489.59;146603;628;46042;-76
2024/01/26 14:18:42;;;;;;;;;17.75;17.50;;;;;19.39;33.30;101484.31;146602;603;48021;-75
2024/01/26 14:21:45;;;;;;;;;12.00;10.00;;;;;19.35;32.72;101480.72;146604;564;46031;-77
2024/01/26 14:24:49;;;;;;;;;11.00;10.00;;;;;19.32;32.92;101475.38;146608;563;47010;-77
2024/01/26 14:28:13;;;;;;;;;11.00;11.00;;;;;18.00;36.20;101261.41;146604;662;47012;-75